Home > Products > Valid Products > TAF

000
FTUS43 KFGF 291139
TAFFAR
TAF
KFAR 291139Z 2912/3012 25020G30KT P6SM BKN050
     FM291600 28025G35KT P6SM SCT040
     FM300000 31016KT P6SM SKC=



000
FTUS43 KFGF 291139
TAFGFK
TAF
KGFK 291139Z 2912/3012 27023G33KT P6SM BKN035
     FM291700 28025G35KT P6SM SCT040
     FM300000 31016KT P6SM SKC=



000
FTUS43 KFGF 291139
TAFGFK
TAF
KGFK 291139Z 2912/3012 27023G33KT P6SM BKN035
     FM291700 28025G35KT P6SM SCT040
     FM300000 31016KT P6SM SKC=



000
FTUS43 KFGF 291139
TAFFAR
TAF
KFAR 291139Z 2912/3012 25020G30KT P6SM BKN050
     FM291600 28025G35KT P6SM SCT040
     FM300000 31016KT P6SM SKC=



000
FTUS43 KFGF 290520
TAFGFK
TAF
KGFK 290520Z 2906/3006 25023G33KT P6SM BKN040
      TEMPO 2909/2911 BKN025
     FM291500 28025G35KT P6SM SCT040
     FM300000 29012KT P6SM SKC=



000
FTUS43 KFGF 290520
TAFFAR
TAF
KFAR 290520Z 2906/3006 25020G30KT P6SM SCT040
     FM291500 29023G33KT P6SM SCT040
     FM300000 28012KT P6SM SKC=



000
FTUS43 KFGF 282320
TAFFAR
TAF
KFAR 282320Z 2900/2924 24020G30KT P6SM SCT080
     FM291200 28022G32KT P6SM SCT050=



000
FTUS43 KFGF 282320
TAFGFK
TAF
KGFK 282320Z 2900/2924 23020G30KT P6SM BKN080
     FM291200 29022G32KT P6SM BKN050=



000
FTUS43 KFGF 282320
TAFGFK
TAF
KGFK 282320Z 2900/2924 23020G30KT P6SM BKN080
     FM291200 29022G32KT P6SM BKN050=



000
FTUS43 KFGF 282320
TAFFAR
TAF
KFAR 282320Z 2900/2924 24020G30KT P6SM SCT080
     FM291200 28022G32KT P6SM SCT050=



000
FTUS43 KFGF 282047 AAA
TAFGFK
TAF AMD
KGFK 282047Z 2821/2918 23025G35KT P6SM BKN040
     FM290500 25025G33KT P6SM BKN030
     FM291400 29028G37KT P6SM SCT030=



000
FTUS43 KFGF 281725
TAFFAR
TAF
KFAR 281725Z 2818/2918 24015G23KT P6SM SCT030
     FM282100 24025G35KT P6SM SCT040
     FM290600 25022G30KT P6SM BKN035
     FM291300 26025G33KT P6SM SCT040=



000
FTUS43 KFGF 281725
TAFGFK
TAF
KGFK 281725Z 2818/2918 23018G28KT P6SM SCT050
     FM282100 23028G35KT P6SM SCT040
     FM290500 25025G33KT P6SM BKN030
     FM291400 29028G37KT P6SM SCT030=



000
FTUS43 KFGF 281706 AAB
TAFFAR
TAF AMD
KFAR 281706Z 2817/2912 25017G27KT P6SM SCT025 BKN250
     FM282100 24025G35KT P6SM SCT040
     FM290600 24022G30KT P6SM BKN035=



000
FTUS43 KFGF 281706 AAB
TAFFAR
TAF AMD
KFAR 281706Z 2817/2912 25017G27KT P6SM SCT025 BKN250
     FM282100 24025G35KT P6SM SCT040
     FM290600 24022G30KT P6SM BKN035=



000
FTUS43 KFGF 281524 AAA
TAFFAR
TAF AMD
KFAR 281524Z 2815/2912 21018G28KT P6SM SCT025 BKN250
      TEMPO 2815/2817 BKN025
     FM282100 24025G35KT P6SM SCT040
     FM290600 24022G30KT P6SM BKN035=



000
FTUS43 KFGF 281523 AAA
TAFGFK
TAF AMD
KGFK 281523Z 2815/2912 20018G28KT P6SM SCT050 BKN250
     FM282100 22030G40KT P6SM SCT040
     FM290600 23023G30KT P6SM BKN025=



000
FTUS43 KFGF 281523 AAA
TAFGFK
TAF AMD
KGFK 281523Z 2815/2912 20018G28KT P6SM SCT050 BKN250
     FM282100 22030G40KT P6SM SCT040
     FM290600 23023G30KT P6SM BKN025=



000
FTUS43 KFGF 281139
TAFGFK
TAF
KGFK 281139Z 2812/2912 14010KT P6SM BKN110
      TEMPO 2812/2814 15020G30KT 3SM -TSRA BKN020CB
     FM281500 20015KT P6SM BKN050
     FM282100 22028G38KT P6SM SCT050
     FM290600 23020KT P6SM BKN040=



000
FTUS43 KFGF 281139
TAFFAR
TAF
KFAR 281139Z 2812/2912 13013KT P6SM BKN130
     FM281500 21015KT P6SM BKN080
     FM282100 24025G35KT P6SM BKN040
     FM290600 24022KT P6SM BKN035=



000
FTUS43 KFGF 281139
TAFFAR
TAF
KFAR 281139Z 2812/2912 13013KT P6SM BKN130
     FM281500 21015KT P6SM BKN080
     FM282100 24025G35KT P6SM BKN040
     FM290600 24022KT P6SM BKN035=



000
FTUS43 KFGF 281139
TAFGFK
TAF
KGFK 281139Z 2812/2912 14010KT P6SM BKN110
      TEMPO 2812/2814 15020G30KT 3SM -TSRA BKN020CB
     FM281500 20015KT P6SM BKN050
     FM282100 22028G38KT P6SM SCT050
     FM290600 23020KT P6SM BKN040=



000
FTUS43 KFGF 281040 AAA
TAFGFK
TAF AMD
KGFK 281040Z 2811/2906 14010KT P6SM BKN250
      TEMPO 2811/2812 15020G30KT 3SM -TSRA BKN020CB
     FM281500 20015KT P6SM BKN050
     FM282100 22020G30KT P6SM SCT050=



000
FTUS43 KFGF 281040 AAA
TAFGFK
TAF AMD
KGFK 281040Z 2811/2906 14010KT P6SM BKN250
      TEMPO 2811/2812 15020G30KT 3SM -TSRA BKN020CB
     FM281500 20015KT P6SM BKN050
     FM282100 22020G30KT P6SM SCT050=



000
FTUS43 KFGF 280520
TAFFAR
TAF
KFAR 280520Z 2806/2906 14016KT P6SM SCT250
     FM280800 15015KT P6SM BKN080
      TEMPO 2808/2810 VRB25G35KT 2SM TSRA BKN040CB
     FM281500 20015KT P6SM BKN080
     FM282100 24020G30KT P6SM SCT050=



000
FTUS43 KFGF 280520
TAFGFK
TAF
KGFK 280520Z 2806/2906 14010KT P6SM BKN250
     FM280800 14010KT P6SM BKN080
      TEMPO 2809/2811 3SM -TSRA BKN040CB
     FM281500 20015KT P6SM BKN050
     FM282100 22020G30KT P6SM SCT050=



000
FTUS43 KFGF 272320
TAFGFK
TAF
KGFK 272320Z 2800/2824 14014KT P6SM FEW035
     FM280600 14012KT P6SM BKN250
     FM281000 14012KT P6SM VCTS BKN050CB
     FM281500 18016KT P6SM BKN080=



000
FTUS43 KFGF 272320
TAFFAR
TAF
KFAR 272320Z 2800/2824 14015KT P6SM SKC
     FM280600 14016KT P6SM BKN250
     FM280900 14015KT P6SM VCTS BKN050CB
     FM281500 18015KT P6SM BKN080=



000
FTUS43 KFGF 272320
TAFGFK
TAF
KGFK 272320Z 2800/2824 14014KT P6SM FEW035
     FM280600 14012KT P6SM BKN250
     FM281000 14012KT P6SM VCTS BKN050CB
     FM281500 18016KT P6SM BKN080=



000
FTUS43 KFGF 272320
TAFFAR
TAF
KFAR 272320Z 2800/2824 14015KT P6SM SKC
     FM280600 14016KT P6SM BKN250
     FM280900 14015KT P6SM VCTS BKN050CB
     FM281500 18015KT P6SM BKN080=



000
FTUS43 KFGF 272010 AAB
TAFFAR
TAF AMD
KFAR 272010Z 2720/2818 15012G18KT P6SM SCT040
     FM280200 14014KT P6SM SCT120
     FM281100 15014G18KT P6SM -TSRA BKN060CB
     FM281500 19016G25KT P6SM BKN080=



000
FTUS43 KFGF 271916 AAA
TAFFAR
TAF AMD
KFAR 271916Z 2719/2818 15012KT P6SM SCT035
     FM272000 15013G18KT P6SM FEW040
     FM280200 14014KT P6SM SCT120
     FM281100 15014G18KT P6SM -TSRA BKN060CB
     FM281500 19016G25KT P6SM BKN080=



000
FTUS43 KFGF 271915 AAA
TAFGFK
TAF AMD
KGFK 271915Z 2719/2818 15012KT P6SM SCT035
     FM272100 15012G17KT P6SM FEW040
     FM280200 13014KT P6SM SCT120
     FM281100 15014G18KT P6SM -TSRA BKN060CB
     FM281500 19016G25KT P6SM BKN080=



000
FTUS43 KFGF 271915 AAA
TAFGFK
TAF AMD
KGFK 271915Z 2719/2818 15012KT P6SM SCT035
     FM272100 15012G17KT P6SM FEW040
     FM280200 13014KT P6SM SCT120
     FM281100 15014G18KT P6SM -TSRA BKN060CB
     FM281500 19016G25KT P6SM BKN080=



000
FTUS43 KFGF 271734
TAFFAR
TAF
KFAR 271734Z 2718/2818 14010KT P6SM BKN035
     FM272000 15014G20KT P6SM FEW250
     FM280200 14014KT P6SM SCT120
     FM281100 15014G18KT P6SM -TSRA BKN060CB
     FM281500 19016G25KT P6SM BKN080=



000
FTUS43 KFGF 271734
TAFGFK
TAF
KGFK 271734Z 2718/2818 15012KT P6SM BKN035
     FM272000 15014G20KT P6SM FEW250
     FM280200 13014KT P6SM SCT120
     FM281100 15014G18KT P6SM -TSRA BKN060CB
     FM281500 19016G25KT P6SM BKN080=



000
FTUS43 KFGF 271734
TAFGFK
TAF
KGFK 271734Z 2718/2818 15012KT P6SM BKN035
     FM272000 15014G20KT P6SM FEW250
     FM280200 13014KT P6SM SCT120
     FM281100 15014G18KT P6SM -TSRA BKN060CB
     FM281500 19016G25KT P6SM BKN080=



000
FTUS43 KFGF 271734
TAFFAR
TAF
KFAR 271734Z 2718/2818 14010KT P6SM BKN035
     FM272000 15014G20KT P6SM FEW250
     FM280200 14014KT P6SM SCT120
     FM281100 15014G18KT P6SM -TSRA BKN060CB
     FM281500 19016G25KT P6SM BKN080=



000
FTUS43 KFGF 271700 AAD
TAFFAR
TAF AMD
KFAR 271700Z 2717/2812 14011KT P6SM BKN030
     FM272000 15014G20KT P6SM SCT040
     FM280700 15015G23KT P6SM -TSRA BKN040CB
     FM281000 18013KT P6SM BKN050=



000
FTUS43 KFGF 271700 AAD
TAFFAR
TAF AMD
KFAR 271700Z 2717/2812 14011KT P6SM BKN030
     FM272000 15014G20KT P6SM SCT040
     FM280700 15015G23KT P6SM -TSRA BKN040CB
     FM281000 18013KT P6SM BKN050=



000
FTUS43 KFGF 271658 AAC
TAFGFK
TAF AMD
KGFK 271658Z 2717/2812 14010KT P6SM BKN026
     FM272000 15014G20KT P6SM SCT040
     FM280600 15015G23KT P6SM -TSRA BKN040CB
     FM281000 18013KT P6SM BKN050=



000
FTUS43 KFGF 271658 AAC
TAFGFK
TAF AMD
KGFK 271658Z 2717/2812 14010KT P6SM BKN026
     FM272000 15014G20KT P6SM SCT040
     FM280600 15015G23KT P6SM -TSRA BKN040CB
     FM281000 18013KT P6SM BKN050=



000
FTUS43 KFGF 271616 AAC
TAFFAR
TAF AMD
KFAR 271616Z 2716/2812 14010KT P6SM BKN120
      TEMPO 2716/2718 SCT025
     FM271800 15014G20KT P6SM SCT250
     FM280700 15015G23KT P6SM -TSRA BKN040CB
     FM281000 18013KT P6SM BKN050=



000
FTUS43 KFGF 271616 AAC
TAFFAR
TAF AMD
KFAR 271616Z 2716/2812 14010KT P6SM BKN120
      TEMPO 2716/2718 SCT025
     FM271800 15014G20KT P6SM SCT250
     FM280700 15015G23KT P6SM -TSRA BKN040CB
     FM281000 18013KT P6SM BKN050=



000
FTUS43 KFGF 271611 AAB
TAFGFK
TAF AMD
KGFK 271611Z 2716/2812 14010KT P6SM FEW025 SCT250
     FM272000 15014G20KT P6SM SCT250
     FM280600 15015G23KT P6SM -TSRA BKN040CB
     FM281000 18013KT P6SM BKN050=



000
FTUS43 KFGF 271611 AAB
TAFGFK
TAF AMD
KGFK 271611Z 2716/2812 14010KT P6SM FEW025 SCT250
     FM272000 15014G20KT P6SM SCT250
     FM280600 15015G23KT P6SM -TSRA BKN040CB
     FM281000 18013KT P6SM BKN050=



000
FTUS43 KFGF 271511 AAB
TAFFAR
TAF AMD
KFAR 271511Z 2715/2812 13012KT P6SM BKN250
      TEMPO 2715/2717 SCT020
     FM271700 15016G26KT P6SM BKN250
     FM280700 15015G23KT P6SM -TSRA BKN040CB
     FM281000 18013KT P6SM BKN050=



000
FTUS43 KFGF 271404 AAA
TAFFAR
TAF AMD
KFAR 271404Z 2714/2812 13012KT P6SM BKN250
     FM271700 15016G26KT P6SM BKN250
     FM280700 15015G23KT P6SM -TSRA BKN040CB
     FM281000 18013KT P6SM BKN050=



000
FTUS43 KFGF 271402 AAA
TAFGFK
TAF AMD
KGFK 271402Z 2714/2812 15013KT P6SM BKN250
     FM271700 14016G22KT P6SM BKN250
     FM280600 15015G23KT P6SM -TSRA BKN040CB
     FM281000 18013KT P6SM BKN050=



000
FTUS43 KFGF 271120
TAFFAR
TAF
KFAR 271120Z 2712/2812 16006KT P6SM SCT200
     FM271700 15016G26KT P6SM BKN200
     FM280700 15015G23KT P6SM -TSRA BKN040CB
     FM281000 18013KT P6SM BKN050=



000
FTUS43 KFGF 271120
TAFGFK
TAF
KGFK 271120Z 2712/2812 15007KT P6SM FEW250
     FM271400 15013KT P6SM SCT250
     FM271700 14016G22KT P6SM BKN200
     FM280600 15015G23KT P6SM -TSRA BKN040CB
     FM281000 18013KT P6SM BKN050=



000
FTUS43 KFGF 271120
TAFFAR
TAF
KFAR 271120Z 2712/2812 16006KT P6SM SCT200
     FM271700 15016G26KT P6SM BKN200
     FM280700 15015G23KT P6SM -TSRA BKN040CB
     FM281000 18013KT P6SM BKN050=



000
FTUS43 KFGF 271120
TAFGFK
TAF
KGFK 271120Z 2712/2812 15007KT P6SM FEW250
     FM271400 15013KT P6SM SCT250
     FM271700 14016G22KT P6SM BKN200
     FM280600 15015G23KT P6SM -TSRA BKN040CB
     FM281000 18013KT P6SM BKN050=



000
FTUS43 KFGF 270520
TAFFAR
TAF
KFAR 270520Z 2706/2806 16006KT P6SM FEW250
     FM271700 15016G26KT P6SM BKN250=



000
FTUS43 KFGF 270520
TAFGFK
TAF
KGFK 270520Z 2706/2806 14005KT P6SM FEW250
     FM271400 15013KT P6SM SCT250
     FM271700 16016G26KT P6SM BKN200=



000
FTUS43 KFGF 270520
TAFGFK
TAF
KGFK 270520Z 2706/2806 14005KT P6SM FEW250
     FM271400 15013KT P6SM SCT250
     FM271700 16016G26KT P6SM BKN200=



000
FTUS43 KFGF 270520
TAFFAR
TAF
KFAR 270520Z 2706/2806 16006KT P6SM FEW250
     FM271700 15016G26KT P6SM BKN250=



000
FTUS43 KFGF 262320
TAFFAR
TAF
KFAR 262320Z 2700/2724 19009KT P6SM FEW250
     FM270300 16006KT P6SM FEW250
     FM271700 15016G26KT P6SM BKN250=



000
FTUS43 KFGF 262320
TAFGFK
TAF
KGFK 262320Z 2700/2724 20010KT P6SM FEW250
     FM270400 14005KT P6SM FEW250
     FM271400 15013KT P6SM SCT250
     FM271700 16016G26KT P6SM BKN200=



000
FTUS43 KFGF 262320
TAFGFK
TAF
KGFK 262320Z 2700/2724 20010KT P6SM FEW250
     FM270400 14005KT P6SM FEW250
     FM271400 15013KT P6SM SCT250
     FM271700 16016G26KT P6SM BKN200=



000
FTUS43 KFGF 262320
TAFFAR
TAF
KFAR 262320Z 2700/2724 19009KT P6SM FEW250
     FM270300 16006KT P6SM FEW250
     FM271700 15016G26KT P6SM BKN250=



000
FTUS43 KFGF 261721
TAFFAR
TAF
KFAR 261721Z 2618/2718 19009KT P6SM FEW250
     FM270300 16006KT P6SM FEW250
     FM271500 15015KT P6SM BKN250=



000
FTUS43 KFGF 261721
TAFGFK
TAF
KGFK 261721Z 2618/2718 20010KT P6SM FEW250
     FM270400 16005KT P6SM FEW250
     FM271500 16014KT P6SM BKN250=



000
FTUS43 KFGF 261721
TAFFAR
TAF
KFAR 261721Z 2618/2718 19009KT P6SM FEW250
     FM270300 16006KT P6SM FEW250
     FM271500 15015KT P6SM BKN250=



000
FTUS43 KFGF 261721
TAFGFK
TAF
KGFK 261721Z 2618/2718 20010KT P6SM FEW250
     FM270400 16005KT P6SM FEW250
     FM271500 16014KT P6SM BKN250=



    US Dept of Commerce
    National Oceanic and Atmospheric Administration
    National Weather Service
    1325 East West Highway
    Silver Spring, MD 20910
    Page Author: NWS Internet Services Team
Disclaimer
Information Quality
Credits
Glossary
Privacy Policy
Freedom of Information Act (FOIA)
About Us
Career Opportunities